Agnes, Georgia
Current Conditions -  °F | °C
As of 2:55 AM on Monday 24 Nov 2014 (Local Time) from KHQU Reporting Station
Broken Clouds Broken Clouds  
Wind Chill: 64°   Ceiling: 2100
Heat Index: 64°   Visibility: 10mi
Dew Point: 64°   Wind: 5mph
Humidity: 99%   Direction: 200°SSW
Pressure: 29.84"   Gusts: NA
Location:  33.7816°N, 82.4511°W
Report Text: KHQU 240755Z AUTO 20004KT 10SM BKN021 18/18 A2984 RMK AO1 T01780177
Loading
Personal Weather Stations






























Interactive Weather Map New forecast layout! Learn more

10-Day Weather Forecast

Advertisements
Track Severe Weather on mobile